createdAt,value
2022-09-04T00:01:30.826Z,98721.44
2022-09-04T00:04:39.420Z,98722.13
2022-09-04T00:07:26.878Z,98724.34
2022-09-04T00:10:42.021Z,98721.13
2022-09-04T00:13:27.567Z,98724.00
2022-09-04T00:16:17.011Z,98741.38
2022-09-04T00:19:21.894Z,98728.47
2022-09-04T00:22:02.201Z,98730.09
2022-09-04T00:24:39.609Z,98730.38
2022-09-04T00:27:27.020Z,98735.94
2022-09-04T00:30:11.558Z,98727.41
2022-09-04T00:33:19.154Z,98730.59
2022-09-04T00:35:59.867Z,98727.59
2022-09-04T00:38:34.906Z,98730.81
2022-09-04T00:41:42.482Z,98730.34
2022-09-04T00:44:59.014Z,98732.19
2022-09-04T00:47:44.799Z,98732.53
2022-09-04T00:50:54.849Z,98732.31
2022-09-04T00:54:23.205Z,98742.59
2022-09-04T00:57:24.038Z,98742.38
2022-09-04T01:00:08.125Z,98746.56
2022-09-04T01:03:23.401Z,98754.25
2022-09-04T01:06:41.693Z,98746.38
2022-09-04T01:09:52.007Z,98757.31
2022-09-04T01:12:27.856Z,98759.59
2022-09-04T01:15:24.653Z,98759.59
2022-09-04T01:18:17.460Z,98763.50
2022-09-04T01:21:18.761Z,98761.56
2022-09-04T01:24:29.701Z,98766.47
2022-09-04T01:27:06.028Z,98776.19
2022-09-04T01:30:05.713Z,98774.81
2022-09-04T01:33:19.518Z,98778.56
2022-09-04T01:36:02.058Z,98781.66
2022-09-04T01:38:51.737Z,98778.94
2022-09-04T01:42:08.561Z,98784.72
2022-09-04T01:44:36.937Z,98780.81
2022-09-04T01:47:29.081Z,98786.06
2022-09-04T01:50:17.270Z,98786.53
2022-09-04T01:53:17.950Z,98788.47
2022-09-04T01:56:09.678Z,98787.66
2022-09-04T01:59:33.096Z,98794.53
2022-09-04T02:02:22.542Z,98797.03
2022-09-04T02:05:28.973Z,98794.28
2022-09-04T02:08:11.384Z,98788.13
2022-09-04T02:11:28.207Z,98790.97
2022-09-04T02:14:43.964Z,98803.75
2022-09-04T02:17:38.299Z,98801.13
2022-09-04T02:20:30.523Z,98794.03
2022-09-04T02:23:32.720Z,98798.38
2022-09-04T02:26:03.779Z,98790.94
2022-09-04T02:28:45.709Z,98800.97
2022-09-04T02:31:22.008Z,98799.72
2022-09-04T02:34:09.043Z,98798.56
2022-09-04T02:37:08.234Z,98798.34
2022-09-04T02:40:16.294Z,98795.25
2022-09-04T02:43:19.775Z,98803.34
2022-09-04T02:46:18.820Z,98795.09
2022-09-04T02:49:07.624Z,98799.75
2022-09-04T02:52:01.816Z,98797.84
2022-09-04T02:55:20.775Z,98805.84
2022-09-04T02:58:23.576Z,98806.53
2022-09-04T03:01:31.133Z,98804.94
2022-09-04T03:04:13.036Z,98804.56
2022-09-04T03:06:48.984Z,98805.63
2022-09-04T03:09:51.772Z,98804.34
2022-09-04T03:12:52.255Z,98803.78
2022-09-04T03:15:50.646Z,98802.50
2022-09-04T03:18:29.887Z,98799.97
2022-09-04T03:21:06.315Z,98812.41
2022-09-04T03:23:46.714Z,98812.41
2022-09-04T03:26:47.107Z,98814.22
2022-09-04T03:29:30.075Z,98815.81
2022-09-04T03:32:28.897Z,98812.94
2022-09-04T03:35:20.951Z,98806.53
2022-09-04T03:38:33.913Z,98823.31
2022-09-04T03:42:10.767Z,98818.97
2022-09-04T03:45:18.305Z,98818.59
2022-09-04T03:48:09.298Z,98821.22
2022-09-04T03:50:57.749Z,98815.97
2022-09-04T03:53:48.875Z,98830.56
2022-09-04T03:56:45.713Z,98832.97
2022-09-04T03:59:46.541Z,98832.19
2022-09-04T04:02:46.693Z,98831.91
2022-09-04T04:05:40.948Z,98835.59
2022-09-04T04:08:35.946Z,98842.22
2022-09-04T04:11:44.979Z,98832.72
2022-09-04T04:14:42.443Z,98838.09
2022-09-04T04:17:40.066Z,98841.06
2022-09-04T04:20:14.216Z,98848.00
2022-09-04T04:23:02.989Z,98849.78
2022-09-04T04:25:52.578Z,98849.78
2022-09-04T04:28:56.274Z,98857.03
2022-09-04T04:31:44.486Z,98858.16
2022-09-04T04:34:32.938Z,98863.63
2022-09-04T04:37:32.252Z,98869.50
2022-09-04T04:40:19.584Z,98872.06
2022-09-04T04:42:58.820Z,98872.75
2022-09-04T04:46:16.236Z,98886.41
2022-09-04T04:49:10.562Z,98877.25
2022-09-04T04:52:27.556Z,98877.72
2022-09-04T04:55:31.318Z,98890.09
2022-09-04T04:58:38.863Z,98901.38
2022-09-04T05:01:34.309Z,98900.91
2022-09-04T05:04:23.066Z,98900.22
2022-09-04T05:07:02.028Z,98898.00
2022-09-04T05:09:50.693Z,98903.81
2022-09-04T05:13:13.884Z,98917.97
2022-09-04T05:16:09.307Z,98915.97
2022-09-04T05:19:15.603Z,98931.06
2022-09-04T05:22:16.724Z,98924.59
2022-09-04T05:25:01.293Z,98924.47
2022-09-04T05:27:53.046Z,98928.44
2022-09-04T05:30:42.575Z,98933.91
2022-09-04T05:33:44.311Z,98941.47
2022-09-04T05:36:32.316Z,98941.34
2022-09-04T05:39:44.857Z,98945.31
2022-09-04T05:42:41.758Z,98951.59
2022-09-04T05:45:20.835Z,98960.88
2022-09-04T05:48:16.494Z,98962.63
2022-09-04T05:51:07.104Z,98957.47
2022-09-04T05:54:00.978Z,98969.22
2022-09-04T05:57:19.140Z,98982.25
2022-09-04T06:00:01.328Z,98973.19
2022-09-04T06:02:53.083Z,98984.41
2022-09-04T06:06:12.797Z,98984.06
2022-09-04T06:09:09.209Z,98975.84
2022-09-04T06:12:05.113Z,98976.00
2022-09-04T06:14:57.523Z,98976.56
2022-09-04T06:17:51.383Z,98978.31
2022-09-04T06:20:23.873Z,98981.06
2022-09-04T06:23:51.586Z,98986.19
2022-09-04T06:26:38.829Z,98989.84
2022-09-04T06:30:01.930Z,98998.03
2022-09-04T06:33:08.904Z,98995.28
2022-09-04T06:36:12.008Z,99008.78
2022-09-04T06:39:03.968Z,99005.16
2022-09-04T06:42:02.626Z,98999.47
2022-09-04T06:45:04.037Z,99004.44
2022-09-04T06:47:52.062Z,99009.34
2022-09-04T06:51:08.900Z,99015.06
2022-09-04T06:54:25.168Z,99007.59
2022-09-04T06:57:08.308Z,99016.44
2022-09-04T06:59:56.531Z,99013.47
2022-09-04T07:02:57.355Z,99024.38
2022-09-04T07:05:54.686Z,99014.31
2022-09-04T07:08:49.889Z,99032.25
2022-09-04T07:11:47.935Z,99029.44
2022-09-04T07:14:27.681Z,99039.97
2022-09-04T07:17:22.031Z,99046.16
2022-09-04T07:20:25.815Z,99045.69
2022-09-04T07:23:49.909Z,99040.91
2022-09-04T07:26:47.857Z,99037.16
2022-09-04T07:29:41.520Z,99035.09
2022-09-04T07:32:24.954Z,99044.94
2022-09-04T07:35:36.899Z,99040.00
2022-09-04T07:38:40.520Z,99049.94
2022-09-04T07:41:42.131Z,99053.66
2022-09-04T07:45:05.511Z,99052.88
2022-09-04T07:48:19.577Z,99062.41
2022-09-04T07:51:10.219Z,99054.13
2022-09-04T07:54:23.026Z,99051.25
2022-09-04T07:57:33.034Z,99054.75
2022-09-04T08:00:13.143Z,99062.84
2022-09-04T08:03:22.232Z,99071.56
2022-09-04T08:06:56.569Z,99065.78
2022-09-04T08:10:04.366Z,99071.44
2022-09-04T08:13:13.496Z,99073.75
2022-09-04T08:16:30.062Z,99070.69
2022-09-04T08:19:45.523Z,99076.69
2022-09-04T08:22:28.234Z,99083.75
2022-09-04T08:25:04.055Z,99081.53
2022-09-04T08:28:02.828Z,99084.25
2022-09-04T08:30:59.383Z,99089.34
2022-09-04T08:34:10.539Z,99100.97
2022-09-04T08:37:34.519Z,99095.59
2022-09-04T08:40:36.483Z,99098.19
2022-09-04T08:43:34.478Z,99097.22
2022-09-04T08:46:30.168Z,99098.66
2022-09-04T08:49:45.125Z,99096.75
2022-09-04T08:52:55.794Z,99101.22
2022-09-04T08:55:50.844Z,99106.84
2022-09-04T08:59:05.090Z,99106.47
2022-09-04T09:02:08.795Z,99106.09
2022-09-04T09:05:00.150Z,99099.72
2022-09-04T09:08:02.914Z,99102.34
2022-09-04T09:11:04.633Z,99098.44
2022-09-04T09:14:31.759Z,99098.13
2022-09-04T09:17:38.400Z,99095.75
2022-09-04T09:20:43.067Z,99100.88
2022-09-04T09:23:19.696Z,99093.47
2022-09-04T09:26:11.705Z,99096.97
2022-09-04T09:29:19.256Z,99086.59
2022-09-04T09:32:12.584Z,99086.59
2022-09-04T09:38:48.603Z,99090.19
2022-09-04T09:41:48.856Z,99100.63
2022-09-04T09:44:42.616Z,99088.94
2022-09-04T09:48:01.387Z,99097.19
2022-09-04T09:50:55.617Z,99094.19
2022-09-04T09:54:03.479Z,99098.09
2022-09-04T09:57:20.943Z,99085.63
2022-09-04T10:00:28.178Z,99084.31
2022-09-04T10:03:49.843Z,99085.34
2022-09-04T10:06:51.503Z,99093.19
2022-09-04T10:10:31.763Z,99098.25
2022-09-04T10:13:50.542Z,99096.97
2022-09-04T10:17:32.508Z,99087.06
2022-09-04T10:20:20.461Z,99084.28
2022-09-04T10:23:54.615Z,99090.75
2022-09-04T10:26:42.288Z,99084.69
2022-09-04T10:29:57.322Z,99083.03
2022-09-04T10:33:07.980Z,99073.47
2022-09-04T10:35:45.259Z,99070.50
2022-09-04T10:38:25.358Z,99077.78
2022-09-04T10:41:14.180Z,99077.81
2022-09-04T10:44:09.266Z,99075.41
2022-09-04T10:47:34.989Z,99070.81
2022-09-04T10:50:57.602Z,99065.28
2022-09-04T10:54:21.682Z,99068.28
2022-09-04T10:57:10.662Z,99070.03
2022-09-04T11:00:11.484Z,99063.28
2022-09-04T11:03:18.417Z,99074.25
2022-09-04T11:06:37.586Z,99070.25
2022-09-04T11:09:57.896Z,99063.03
2022-09-04T11:13:07.130Z,99066.47
2022-09-04T11:15:58.085Z,99064.03
2022-09-04T11:18:59.191Z,99060.22
2022-09-04T11:21:51.033Z,99069.22
2022-09-04T11:25:02.244Z,99067.00
2022-09-04T11:28:19.755Z,99074.53
2022-09-04T11:31:15.036Z,99068.50
2022-09-04T11:34:34.842Z,99067.63
2022-09-04T11:37:51.253Z,99060.03
2022-09-04T11:40:47.098Z,99061.28
2022-09-04T11:43:42.252Z,99056.69
2022-09-04T11:46:23.204Z,99066.53
2022-09-04T11:49:47.961Z,99053.91
2022-09-04T11:53:02.272Z,99059.22
2022-09-04T11:56:32.063Z,99055.06
2022-09-04T11:59:57.377Z,99064.88
2022-09-04T12:02:40.879Z,99064.19
2022-09-04T12:05:55.333Z,99068.63
2022-09-04T12:08:57.249Z,99060.13
2022-09-04T12:11:55.995Z,99065.53
2022-09-04T12:14:36.901Z,99062.50
2022-09-04T12:17:36.273Z,99060.13
2022-09-04T12:20:34.287Z,99063.22
2022-09-04T12:23:51.720Z,99058.34
2022-09-04T12:26:58.114Z,99063.63
2022-09-04T12:29:42.782Z,99067.31
2022-09-04T12:33:08.449Z,99064.72
2022-09-04T12:36:30.260Z,99069.56
2022-09-04T12:39:18.382Z,99065.00
2022-09-04T12:42:07.658Z,99060.75
2022-09-04T12:45:24.959Z,99068.53
2022-09-04T12:48:33.745Z,99066.81
2022-09-04T12:51:13.992Z,99060.13
2022-09-04T12:58:04.805Z,99077.59
2022-09-04T13:00:48.424Z,99073.59
2022-09-04T13:04:07.538Z,99079.63
2022-09-04T13:07:16.328Z,99074.69
2022-09-04T13:10:34.744Z,99082.09
2022-09-04T13:13:47.977Z,99069.19
2022-09-04T13:16:32.445Z,99065.53
2022-09-04T13:19:30.640Z,99077.97
2022-09-04T13:22:31.054Z,99073.91
2022-09-04T13:25:06.966Z,99067.31
2022-09-04T13:27:53.492Z,99068.28
2022-09-04T13:30:24.372Z,99064.91
2022-09-04T13:33:00.538Z,99064.84
2022-09-04T13:36:00.986Z,99064.22
2022-09-04T13:39:10.821Z,99073.25
2022-09-04T13:42:21.124Z,99064.97
2022-09-04T13:45:12.825Z,99060.44
2022-09-04T13:47:54.209Z,99053.50
2022-09-04T13:50:55.985Z,99064.13
2022-09-04T13:53:35.789Z,99059.16
2022-09-04T13:56:16.020Z,99057.25
2022-09-04T13:58:51.780Z,99052.50
2022-09-04T14:01:31.806Z,99044.94
2022-09-04T14:04:09.931Z,99045.78
2022-09-04T14:06:38.048Z,99045.00
2022-09-04T14:09:06.745Z,99053.81
2022-09-04T14:12:19.896Z,99052.09
2022-09-04T14:15:28.637Z,99055.84
2022-09-04T14:18:20.587Z,99046.63
2022-09-04T14:21:37.469Z,99044.63
2022-09-04T14:24:32.988Z,99041.56
2022-09-04T14:27:45.859Z,99051.31
2022-09-04T14:30:24.257Z,99049.03
2022-09-04T14:33:19.024Z,99048.50
2022-09-04T14:36:10.105Z,99049.03
2022-09-04T14:39:46.945Z,99054.38
2022-09-04T14:42:44.137Z,99050.19
2022-09-04T14:45:59.882Z,99049.41
2022-09-04T14:48:27.773Z,99051.03
2022-09-04T14:51:11.364Z,99054.28
2022-09-04T14:53:38.361Z,99053.91
2022-09-04T14:56:21.449Z,99051.13
2022-09-04T14:59:34.050Z,99055.50
2022-09-04T15:02:16.411Z,99052.34
2022-09-04T15:05:13.652Z,99049.22
2022-09-04T15:07:46.660Z,99046.44
2022-09-04T15:10:49.521Z,99045.63
2022-09-04T15:13:28.231Z,99043.22
2022-09-04T15:16:28.555Z,99046.38
2022-09-04T15:19:28.166Z,99041.97
2022-09-04T15:22:24.268Z,99032.81
2022-09-04T15:25:01.191Z,99042.34
2022-09-04T15:28:01.203Z,99038.75
2022-09-04T15:30:44.897Z,99047.50
2022-09-04T15:33:23.988Z,99040.38
2022-09-04T15:36:20.408Z,99038.00
2022-09-04T15:39:19.321Z,99037.25
2022-09-04T15:41:49.957Z,99036.44
2022-09-04T15:44:45.294Z,99032.06
2022-09-04T15:47:37.615Z,99042.41
2022-09-04T15:50:22.967Z,99036.47
2022-09-04T15:53:25.070Z,99035.69
2022-09-04T15:56:29.110Z,99038.88
2022-09-04T15:59:19.413Z,99033.72
2022-09-04T16:02:34.621Z,99035.34
2022-09-04T16:05:41.192Z,99026.22
2022-09-04T16:08:52.008Z,99027.84
2022-09-04T16:12:22.298Z,99031.84
2022-09-04T16:15:23.214Z,99039.78
2022-09-04T16:17:57.593Z,99036.19
2022-09-04T16:23:47.405Z,99037.78
2022-09-04T16:27:21.696Z,99022.72
2022-09-04T16:31:04.943Z,99022.31
2022-09-04T16:34:03.659Z,99024.72
2022-09-04T16:37:27.199Z,99028.69
2022-09-04T16:47:13.094Z,99015.56
2022-09-04T16:50:05.712Z,99018.72
2022-09-04T16:57:28.037Z,99017.91
2022-09-04T16:59:46.417Z,99011.16
2022-09-04T17:02:33.538Z,99015.09
2022-09-04T17:05:28.476Z,99023.81
2022-09-04T17:08:17.148Z,99017.03
2022-09-04T17:11:55.642Z,99020.59
2022-09-04T17:15:11.632Z,99020.59
2022-09-04T17:17:47.235Z,99022.94
2022-09-04T17:22:40.469Z,99017.75
2022-09-04T17:29:04.931Z,99026.81
2022-09-04T17:29:17.725Z,99025.56
2022-09-04T17:30:25.792Z,99022.72
2022-09-04T17:38:53.707Z,99032.97
2022-09-04T17:40:51.093Z,99024.47
2022-09-04T17:43:14.809Z,99028.59
2022-09-04T17:45:46.017Z,99021.72
2022-09-04T17:48:27.120Z,99033.13
2022-09-04T17:51:00.879Z,99032.22
2022-09-04T17:53:33.463Z,99035.28
2022-09-04T17:56:23.693Z,99043.69
2022-09-04T17:59:40.499Z,99045.03
2022-09-04T18:05:53.639Z,99061.22
2022-09-04T18:08:36.818Z,99054.78
2022-09-04T18:11:16.483Z,99052.00
2022-09-04T18:14:13.416Z,99058.84
2022-09-04T18:17:12.853Z,99067.91
2022-09-04T18:20:16.355Z,99065.69
2022-09-04T18:23:28.282Z,99070.66
2022-09-04T18:26:42.805Z,99079.38
2022-09-04T18:33:00.424Z,99080.38
2022-09-04T18:37:19.633Z,99084.16
2022-09-04T18:37:24.171Z,99094.19
2022-09-04T18:50:22.475Z,99111.94
2022-09-04T18:50:50.874Z,99114.47
2022-09-04T18:52:48.044Z,99108.22
2022-09-04T19:03:41.897Z,99124.84
2022-09-04T19:07:41.355Z,99133.13
2022-09-04T19:14:11.277Z,99136.44
2022-09-04T19:17:51.067Z,99124.28
2022-09-04T19:21:00.707Z,99128.50
2022-09-04T19:24:02.726Z,99132.47
2022-09-04T19:27:26.838Z,99125.59
2022-09-04T19:30:26.904Z,99127.47
2022-09-04T19:34:11.132Z,99136.00
2022-09-04T19:46:00.851Z,99117.09
2022-09-04T19:53:30.114Z,99121.72
2022-09-04T19:56:02.136Z,99132.72
2022-09-04T20:02:19.123Z,99124.75
2022-09-04T20:08:29.795Z,99130.38
2022-09-04T20:10:56.804Z,99120.78
2022-09-04T20:17:43.709Z,99123.53
2022-09-04T20:20:36.068Z,99119.88
2022-09-04T20:23:50.153Z,99119.88
2022-09-04T20:27:20.810Z,99117.22
2022-09-04T20:29:55.199Z,99116.50
2022-09-04T20:32:33.798Z,99119.44
2022-09-04T20:35:32.703Z,99127.59
2022-09-04T20:38:23.139Z,99129.69
2022-09-04T20:41:06.770Z,99122.31
2022-09-04T20:43:40.149Z,99120.25
2022-09-04T20:50:34.725Z,99118.56
2022-09-04T20:52:49.127Z,99112.00
2022-09-04T20:52:50.479Z,99124.09
2022-09-04T20:56:42.272Z,99113.81
2022-09-04T21:03:12.996Z,99128.91
2022-09-04T21:03:26.223Z,99120.00
2022-09-04T21:06:41.027Z,99118.63
2022-09-04T21:09:32.091Z,99120.13
2022-09-04T21:12:12.392Z,99120.34
2022-09-04T21:14:46.462Z,99115.97
2022-09-04T21:17:42.551Z,99119.88
2022-09-04T21:20:59.725Z,99122.75
2022-09-04T21:24:03.224Z,99115.06
2022-09-04T21:27:07.185Z,99122.63
2022-09-04T21:30:02.579Z,99121.16
2022-09-04T21:32:53.925Z,99127.66
2022-09-04T21:36:25.680Z,99136.50
2022-09-04T21:39:27.547Z,99131.69
2022-09-04T21:42:18.551Z,99129.44
2022-09-04T21:45:25.273Z,99141.47
2022-09-04T21:48:40.631Z,99141.59
2022-09-04T21:51:33.999Z,99133.13
2022-09-04T21:54:29.863Z,99140.47
2022-09-04T22:02:28.100Z,99142.25
2022-09-04T22:02:41.127Z,99141.34
2022-09-04T22:04:13.195Z,99141.94
2022-09-04T22:11:37.186Z,99141.25
2022-09-04T22:13:32.636Z,99146.38
2022-09-04T22:13:43.194Z,99146.97
2022-09-04T22:16:35.062Z,99147.31
2022-09-04T22:19:48.833Z,99155.31
2022-09-04T22:22:30.796Z,99145.38
2022-09-04T22:25:41.067Z,99155.78
2022-09-04T22:28:45.070Z,99154.28
2022-09-04T22:31:22.377Z,99152.09
2022-09-04T22:35:31.392Z,99155.66
2022-09-04T22:38:31.687Z,99155.53
2022-09-04T22:41:32.473Z,99149.25
2022-09-04T22:44:44.469Z,99156.91
2022-09-04T22:47:36.377Z,99152.69
2022-09-04T22:50:50.404Z,99157.72
2022-09-04T22:53:40.873Z,99156.78
2022-09-04T22:56:24.241Z,99162.47
2022-09-04T22:59:56.175Z,99161.88
2022-09-04T23:03:07.095Z,99169.19
2022-09-04T23:08:26.005Z,99170.47
2022-09-04T23:13:51.733Z,99170.75
2022-09-04T23:13:57.504Z,99172.66
2022-09-04T23:16:46.962Z,99172.66
2022-09-04T23:24:46.590Z,99165.31
2022-09-04T23:26:44.826Z,99172.19
2022-09-04T23:26:58.617Z,99172.66
2022-09-04T23:29:59.391Z,99171.47
2022-09-04T23:33:24.459Z,99176.84
2022-09-04T23:36:29.653Z,99169.69
2022-09-04T23:39:39.537Z,99173.16
2022-09-04T23:42:24.867Z,99165.16
2022-09-04T23:45:32.666Z,99166.97
2022-09-04T23:48:05.328Z,99168.56
2022-09-04T23:51:26.326Z,99158.53
2022-09-04T23:54:51.554Z,99156.25
2022-09-04T23:58:32.810Z,99155.56
